createdAt,value
2023-03-12T00:03:40.531Z,82.73
2023-03-12T00:08:48.144Z,82.48
2023-03-12T00:13:56.795Z,82.76
2023-03-12T00:19:03.922Z,82.58
2023-03-12T00:24:11.376Z,82.69
2023-03-12T00:29:18.326Z,82.36
2023-03-12T00:34:25.257Z,82.36
2023-03-12T00:39:33.141Z,82.41
2023-03-12T00:44:40.193Z,82.62
2023-03-12T00:49:47.211Z,82.65
2023-03-12T00:54:58.377Z,82.60
2023-03-12T01:00:10.257Z,82.44
2023-03-12T01:05:17.712Z,82.43
2023-03-12T01:10:25.072Z,82.47
2023-03-12T01:15:32.469Z,82.26
2023-03-12T01:20:42.363Z,82.26
2023-03-12T01:25:51.522Z,82.24
2023-03-12T01:30:58.520Z,82.22
2023-03-12T01:36:05.900Z,82.13
2023-03-12T01:41:13.171Z,82.03
2023-03-12T01:46:30.122Z,82.18
2023-03-12T01:51:41.364Z,82.19
2023-03-12T01:56:50.945Z,81.92
2023-03-12T02:01:58.144Z,81.97
2023-03-12T02:07:08.652Z,81.94
2023-03-12T02:12:16.137Z,81.70
2023-03-12T02:17:23.626Z,81.59
2023-03-12T02:22:32.096Z,81.42
2023-03-12T02:27:40.829Z,81.32
2023-03-12T02:32:50.198Z,80.97
2023-03-12T02:37:58.958Z,80.78
2023-03-12T02:43:08.917Z,80.51
2023-03-12T02:48:16.738Z,80.14
2023-03-12T02:53:24.276Z,79.78
2023-03-12T02:58:31.738Z,79.61
2023-03-12T03:03:39.062Z,79.38
2023-03-12T03:08:46.273Z,79.14
2023-03-12T03:13:53.276Z,78.91
2023-03-12T03:19:01.838Z,78.88
2023-03-12T03:24:09.659Z,78.79
2023-03-12T03:29:17.331Z,78.48
2023-03-12T03:34:24.545Z,78.36
2023-03-12T03:39:32.962Z,78.32
2023-03-12T03:44:40.123Z,78.26
2023-03-12T03:49:47.478Z,78.24
2023-03-12T03:54:54.975Z,78.16
2023-03-12T04:00:03.774Z,78.15
2023-03-12T04:05:20.921Z,78.03
2023-03-12T04:10:28.496Z,78.01
2023-03-12T04:15:35.616Z,78.01
2023-03-12T04:20:43.955Z,77.80
2023-03-12T04:25:50.934Z,77.94
2023-03-12T04:31:00.470Z,77.82
2023-03-12T04:36:10.831Z,77.59
2023-03-12T04:41:19.983Z,77.36
2023-03-12T04:46:33.886Z,77.19
2023-03-12T04:51:41.324Z,77.22
2023-03-12T04:56:48.546Z,76.47
2023-03-12T05:01:56.007Z,75.96
2023-03-12T05:07:06.167Z,76.12
2023-03-12T05:12:15.959Z,75.97
2023-03-12T05:17:22.935Z,75.53
2023-03-12T05:22:30.345Z,75.62
2023-03-12T05:27:37.394Z,75.67
2023-03-12T05:32:44.722Z,75.82
2023-03-12T05:37:52.022Z,75.71
2023-03-12T05:42:59.367Z,75.72
2023-03-12T05:48:07.155Z,75.43
2023-03-12T05:53:14.581Z,75.16
2023-03-12T05:58:22.699Z,75.16
2023-03-12T06:03:30.296Z,75.16
2023-03-12T06:08:37.560Z,74.90
2023-03-12T06:13:44.930Z,74.84
2023-03-12T06:18:56.423Z,74.50
2023-03-12T06:24:03.599Z,74.40
2023-03-12T06:29:17.864Z,73.89
2023-03-12T06:34:24.808Z,73.64
2023-03-12T06:39:31.941Z,73.42
2023-03-12T06:44:38.837Z,72.73
2023-03-12T06:49:45.802Z,72.26
2023-03-12T06:54:52.688Z,72.32
2023-03-12T06:59:59.637Z,72.05
2023-03-12T07:05:07.278Z,71.56
2023-03-12T07:10:14.922Z,71.17
2023-03-12T07:15:21.933Z,71.35
2023-03-12T07:20:28.893Z,71.46
2023-03-12T07:25:38.357Z,70.62
2023-03-12T07:30:50.554Z,70.55
2023-03-12T07:35:58.109Z,70.39
2023-03-12T07:41:05.227Z,70.08
2023-03-12T07:46:12.270Z,70.03
2023-03-12T07:51:19.282Z,69.64
2023-03-12T07:56:26.368Z,69.60
2023-03-12T08:01:34.143Z,69.49
2023-03-12T08:06:42.958Z,69.05
2023-03-12T08:11:50.336Z,68.69
2023-03-12T08:16:57.525Z,69.21
2023-03-12T08:22:04.491Z,68.93
2023-03-12T08:27:12.385Z,68.79
2023-03-12T08:32:19.438Z,69.38
2023-03-12T08:37:26.351Z,68.64
2023-03-12T08:42:33.499Z,68.79
2023-03-12T08:47:41.877Z,68.66
2023-03-12T08:52:49.034Z,68.31
2023-03-12T08:57:55.929Z,67.84
2023-03-12T09:03:03.015Z,67.93
2023-03-12T09:08:10.518Z,67.59
2023-03-12T09:13:17.815Z,67.58
2023-03-12T09:18:25.056Z,67.30
2023-03-12T09:23:32.684Z,67.64
2023-03-12T09:28:39.857Z,67.41
2023-03-12T09:33:46.950Z,67.30
2023-03-12T09:38:53.926Z,66.17
2023-03-12T09:44:05.926Z,65.83
2023-03-12T09:49:20.693Z,65.62
2023-03-12T09:54:34.655Z,65.60
2023-03-12T09:59:41.816Z,64.13
2023-03-12T10:04:59.360Z,64.07
2023-03-12T10:10:50.855Z,64.32
2023-03-12T10:16:09.780Z,64.97
2023-03-12T10:21:26.609Z,63.68
2023-03-12T10:26:40.230Z,64.62
2023-03-12T10:31:53.184Z,64.32
2023-03-12T10:37:06.635Z,62.99
2023-03-12T10:42:19.031Z,63.18
2023-03-12T10:47:34.993Z,62.94
2023-03-12T10:52:42.409Z,63.05
2023-03-12T10:57:50.137Z,61.30
2023-03-12T11:03:03.811Z,62.00
2023-03-12T11:08:23.549Z,62.24
2023-03-12T11:13:34.394Z,61.76
2023-03-12T11:18:41.714Z,60.47
2023-03-12T11:29:40.396Z,58.90
2023-03-12T11:34:49.767Z,59.22
2023-03-12T11:40:11.823Z,59.58
2023-03-12T11:45:21.986Z,59.55
2023-03-12T11:50:39.082Z,59.19
2023-03-12T11:55:57.234Z,59.36
2023-03-12T12:01:11.061Z,58.51
2023-03-12T12:06:28.898Z,55.60
2023-03-12T12:11:47.684Z,54.65
2023-03-12T12:17:05.476Z,53.41
2023-03-12T12:22:41.821Z,53.11
2023-03-12T12:27:57.919Z,52.23
2023-03-12T12:33:18.523Z,52.51
2023-03-12T12:38:30.641Z,52.27
2023-03-12T12:43:40.495Z,50.98
2023-03-12T12:48:51.202Z,50.70
2023-03-12T12:54:08.092Z,50.81
2023-03-12T12:59:30.602Z,50.24
2023-03-12T13:04:40.324Z,51.07
2023-03-12T13:09:50.532Z,51.22
2023-03-12T13:14:58.973Z,50.18
2023-03-12T13:20:20.983Z,50.22
2023-03-12T13:25:55.258Z,49.76
2023-03-12T13:31:02.695Z,51.46
2023-03-12T13:36:23.845Z,51.40
2023-03-12T13:41:37.046Z,50.99
2023-03-12T13:46:47.150Z,50.59
2023-03-12T13:52:09.678Z,49.53
2023-03-12T13:57:31.548Z,50.21
2023-03-12T14:02:45.178Z,50.00
2023-03-12T14:08:11.895Z,50.35
2023-03-12T14:13:36.932Z,51.74
2023-03-12T14:18:47.345Z,51.04
2023-03-12T14:23:57.393Z,49.62
2023-03-12T14:29:09.294Z,49.86
2023-03-12T14:34:21.135Z,50.99
2023-03-12T14:39:28.751Z,51.47
2023-03-12T14:44:37.666Z,50.92
2023-03-12T14:49:47.551Z,51.48
2023-03-12T14:55:03.453Z,51.71
2023-03-12T15:00:26.983Z,52.98
2023-03-12T15:05:35.111Z,53.20
2023-03-12T15:10:48.502Z,52.57
2023-03-12T15:15:57.084Z,53.00
2023-03-12T15:21:05.816Z,53.72
2023-03-12T15:26:15.372Z,54.34
2023-03-12T15:31:22.608Z,54.17
2023-03-12T15:36:31.853Z,54.42
2023-03-12T15:41:45.700Z,54.32
2023-03-12T15:46:55.729Z,54.77
2023-03-12T15:52:06.635Z,54.32
2023-03-12T15:57:26.022Z,54.81
2023-03-12T16:02:41.609Z,54.46
2023-03-12T16:07:48.637Z,53.96
2023-03-12T16:13:02.717Z,52.44
2023-03-12T16:18:14.978Z,51.84
2023-03-12T16:23:22.873Z,51.22
2023-03-12T16:28:30.056Z,50.03
2023-03-12T16:33:36.976Z,50.59
2023-03-12T16:38:44.192Z,51.08
2023-03-12T16:43:54.904Z,51.55
2023-03-12T16:49:04.177Z,51.77
2023-03-12T16:54:12.200Z,52.27
2023-03-12T16:59:27.902Z,52.60
2023-03-12T17:04:34.844Z,52.71
2023-03-12T17:09:42.539Z,52.64
2023-03-12T17:14:49.858Z,53.28
2023-03-12T17:20:00.386Z,53.37
2023-03-12T17:25:09.902Z,53.52
2023-03-12T17:30:17.369Z,54.27
2023-03-12T17:35:24.322Z,54.63
2023-03-12T17:40:31.609Z,55.00
2023-03-12T17:45:38.620Z,55.50
2023-03-12T17:50:46.275Z,55.92
2023-03-12T17:55:53.366Z,56.17
2023-03-12T18:01:02.706Z,56.44
2023-03-12T18:06:09.878Z,56.87
2023-03-12T18:11:16.821Z,57.22
2023-03-12T18:16:23.801Z,57.64
2023-03-12T18:21:33.602Z,57.80
2023-03-12T18:26:41.314Z,57.83
2023-03-12T18:31:48.316Z,57.91
2023-03-12T18:36:55.422Z,58.01
2023-03-12T18:42:02.434Z,58.05
2023-03-12T18:47:09.435Z,58.09
2023-03-12T18:52:16.518Z,58.24
2023-03-12T18:57:23.557Z,58.39
2023-03-12T19:02:30.543Z,58.49
2023-03-12T19:07:38.997Z,58.69
2023-03-12T19:12:52.903Z,58.69
2023-03-12T19:18:00.492Z,59.03
2023-03-12T19:23:07.351Z,59.13
2023-03-12T19:28:14.602Z,59.30
2023-03-12T19:33:21.655Z,59.47
2023-03-12T19:38:29.914Z,59.73
2023-03-12T19:43:36.990Z,59.73
2023-03-12T19:48:43.971Z,59.86
2023-03-12T19:53:50.850Z,59.89
2023-03-12T19:58:57.918Z,60.06
2023-03-12T20:04:08.085Z,59.99
2023-03-12T20:09:14.949Z,60.19
2023-03-12T20:14:21.920Z,60.31
2023-03-12T20:19:29.094Z,60.33
2023-03-12T20:24:36.257Z,60.76
2023-03-12T20:29:46.109Z,61.20
2023-03-12T20:34:56.098Z,61.44
2023-03-12T20:40:03.144Z,61.94
2023-03-12T20:45:11.498Z,62.31
2023-03-12T20:50:18.666Z,62.71
2023-03-12T20:55:25.709Z,63.11
2023-03-12T21:00:33.216Z,63.67
2023-03-12T21:05:40.195Z,64.34
2023-03-12T21:10:48.627Z,66.56
2023-03-12T21:15:55.675Z,68.63
2023-03-12T21:21:05.623Z,68.91
2023-03-12T21:26:13.795Z,69.55
2023-03-12T21:31:20.832Z,69.50
2023-03-12T21:36:28.399Z,69.90
2023-03-12T21:41:35.263Z,69.65
2023-03-12T21:46:42.339Z,69.46
2023-03-12T21:51:49.249Z,69.65
2023-03-12T21:56:56.201Z,69.24
2023-03-12T22:02:03.098Z,69.41
2023-03-12T22:07:10.109Z,69.16
2023-03-12T22:12:17.052Z,69.43
2023-03-12T22:17:24.001Z,69.67
2023-03-12T22:22:31.126Z,70.04
2023-03-12T22:27:38.055Z,70.07
2023-03-12T22:32:45.456Z,70.19
2023-03-12T22:37:52.489Z,70.59
2023-03-12T22:42:59.394Z,70.74
2023-03-12T22:48:07.774Z,71.00
2023-03-12T22:53:14.753Z,71.14
2023-03-12T22:58:21.560Z,71.10
2023-03-12T23:03:28.390Z,71.12
2023-03-12T23:08:35.438Z,71.52
2023-03-12T23:13:44.603Z,71.45
2023-03-12T23:18:52.213Z,71.53
2023-03-12T23:23:59.911Z,71.50
2023-03-12T23:29:06.852Z,71.54
2023-03-12T23:34:14.049Z,71.63
2023-03-12T23:39:22.486Z,71.70
2023-03-12T23:44:29.999Z,71.87
2023-03-12T23:49:37.024Z,72.00
2023-03-12T23:54:44.056Z,72.14
2023-03-12T23:59:50.997Z,71.88
